sensor_id;sensor_type;location;lat;lon;timestamp;pressure;altitude;pressure_sealevel;temperature;humidity
51359;BME280;37448;51.588;7.248;2023-02-14T00:01:56;102886.78;;;2.26;87.93
51359;BME280;37448;51.588;7.248;2023-02-14T00:03:56;102884.03;;;2.23;88.16
51359;BME280;37448;51.588;7.248;2023-02-14T00:06:07;102884.81;;;2.21;88.03
51359;BME280;37448;51.588;7.248;2023-02-14T00:08:08;102887.28;;;2.19;88.35
51359;BME280;37448;51.588;7.248;2023-02-14T00:10:08;102884.56;;;2.16;87.96
51359;BME280;37448;51.588;7.248;2023-02-14T00:12:09;102881.84;;;2.13;87.91
51359;BME280;37448;51.588;7.248;2023-02-14T00:14:10;102879.94;;;2.09;87.73
51359;BME280;37448;51.588;7.248;2023-02-14T00:16:30;102877.19;;;2.06;87.99
51359;BME280;37448;51.588;7.248;2023-02-14T00:18:31;102882.25;;;2.04;87.83
51359;BME280;37448;51.588;7.248;2023-02-14T00:20:50;102871.06;;;2.04;88.58
51359;BME280;37448;51.588;7.248;2023-02-14T00:22:51;102872.63;;;2.00;87.78
51359;BME280;37448;51.588;7.248;2023-02-14T00:24:52;102869.13;;;1.99;88.12
51359;BME280;37448;51.588;7.248;2023-02-14T00:26:52;102881.97;;;1.98;88.41
51359;BME280;37448;51.588;7.248;2023-02-14T00:28:53;102876.66;;;1.95;88.15
51359;BME280;37448;51.588;7.248;2023-02-14T00:30:56;102878.25;;;1.93;88.09
51359;BME280;37448;51.588;7.248;2023-02-14T00:32:56;102874.81;;;1.92;88.50
51359;BME280;37448;51.588;7.248;2023-02-14T00:34:56;102883.34;;;1.91;89.46
51359;BME280;37448;51.588;7.248;2023-02-14T00:36:57;102880.75;;;1.91;89.20
51359;BME280;37448;51.588;7.248;2023-02-14T00:38:58;102879.72;;;1.88;88.90
51359;BME280;37448;51.588;7.248;2023-02-14T00:40:58;102877.22;;;1.89;89.45
51359;BME280;37448;51.588;7.248;2023-02-14T00:42:59;102887.38;;;1.86;89.14
51359;BME280;37448;51.588;7.248;2023-02-14T00:44:59;102880.47;;;1.85;88.74
51359;BME280;37448;51.588;7.248;2023-02-14T00:46:59;102887.38;;;1.86;89.68
51359;BME280;37448;51.588;7.248;2023-02-14T00:49:00;102884.72;;;1.84;90.56
51359;BME280;37448;51.588;7.248;2023-02-14T00:51:00;102884.66;;;1.83;91.06
51359;BME280;37448;51.588;7.248;2023-02-14T00:53:01;102882.81;;;1.80;90.69
51359;BME280;37448;51.588;7.248;2023-02-14T00:55:01;102892.22;;;1.80;90.77
51359;BME280;37448;51.588;7.248;2023-02-14T00:57:01;102887.84;;;1.79;90.39
51359;BME280;37448;51.588;7.248;2023-02-14T00:59:02;102886.03;;;1.76;90.17
51359;BME280;37448;51.588;7.248;2023-02-14T01:01:02;102881.59;;;1.74;89.97
51359;BME280;37448;51.588;7.248;2023-02-14T01:03:03;102886.75;;;1.74;90.02
51359;BME280;37448;51.588;7.248;2023-02-14T01:05:04;102890.13;;;1.72;89.96
51359;BME280;37448;51.588;7.248;2023-02-14T01:07:04;102888.31;;;1.70;90.39
51359;BME280;37448;51.588;7.248;2023-02-14T01:09:05;102894.25;;;1.69;90.56
51359;BME280;37448;51.588;7.248;2023-02-14T01:11:11;102887.25;;;1.66;90.12
51359;BME280;37448;51.588;7.248;2023-02-14T01:13:12;102890.63;;;1.65;89.88
51359;BME280;37448;51.588;7.248;2023-02-14T01:15:13;102891.44;;;1.64;89.62
51359;BME280;37448;51.588;7.248;2023-02-14T01:17:14;102888.78;;;1.63;90.49
51359;BME280;37448;51.588;7.248;2023-02-14T01:19:14;102889.44;;;1.58;90.36
51359;BME280;37448;51.588;7.248;2023-02-14T01:21:19;102894.50;;;1.57;89.71
51359;BME280;37448;51.588;7.248;2023-02-14T01:23:20;102885.97;;;1.58;90.58
51359;BME280;37448;51.588;7.248;2023-02-14T01:25:22;102885.00;;;1.56;89.71
51359;BME280;37448;51.588;7.248;2023-02-14T01:27:24;102889.19;;;1.54;89.78
51359;BME280;37448;51.588;7.248;2023-02-14T01:29:24;102884.78;;;1.51;89.46
51359;BME280;37448;51.588;7.248;2023-02-14T01:31:28;102884.78;;;1.51;90.21
51359;BME280;37448;51.588;7.248;2023-02-14T01:33:30;102883.06;;;1.52;90.41
51359;BME280;37448;51.588;7.248;2023-02-14T01:35:30;102885.63;;;1.52;90.57
51359;BME280;37448;51.588;7.248;2023-02-14T01:37:31;102883.81;;;1.49;90.08
51359;BME280;37448;51.588;7.248;2023-02-14T01:39:32;102881.25;;;1.49;91.43
51359;BME280;37448;51.588;7.248;2023-02-14T01:41:34;102889.75;;;1.48;90.90
51359;BME280;37448;51.588;7.248;2023-02-14T01:46:14;102895.63;;;1.46;90.39
51359;BME280;37448;51.588;7.248;2023-02-14T01:48:15;102894.00;;;1.48;91.19
51359;BME280;37448;51.588;7.248;2023-02-14T01:50:17;102898.31;;;1.47;91.51
51359;BME280;37448;51.588;7.248;2023-02-14T01:52:43;102892.25;;;1.47;90.98
51359;BME280;37448;51.588;7.248;2023-02-14T01:54:49;102893.88;;;1.45;90.99
51359;BME280;37448;51.588;7.248;2023-02-14T01:56:55;102888.72;;;1.45;91.42
51359;BME280;37448;51.588;7.248;2023-02-14T01:59:00;102889.41;;;1.42;90.93
51359;BME280;37448;51.588;7.248;2023-02-14T02:01:02;102884.38;;;1.43;92.00
51359;BME280;37448;51.588;7.248;2023-02-14T02:03:06;102881.69;;;1.42;91.47
51359;BME280;37448;51.588;7.248;2023-02-14T02:05:07;102876.47;;;1.40;91.34
51359;BME280;37448;51.588;7.248;2023-02-14T02:07:10;102883.31;;;1.40;91.16
51359;BME280;37448;51.588;7.248;2023-02-14T02:11:14;102879.56;;;1.33;89.85
51359;BME280;37448;51.588;7.248;2023-02-14T02:13:17;102873.41;;;1.31;90.14
51359;BME280;37448;51.588;7.248;2023-02-14T02:15:20;102878.66;;;1.33;90.68
51359;BME280;37448;51.588;7.248;2023-02-14T02:19:45;102867.06;;;1.24;89.53
51359;BME280;37448;51.588;7.248;2023-02-14T02:22:20;102866.28;;;1.25;90.44
51359;BME280;37448;51.588;7.248;2023-02-14T02:24:37;102868.75;;;1.24;90.49
51359;BME280;37448;51.588;7.248;2023-02-14T02:26:49;102865.22;;;1.22;90.49
51359;BME280;37448;51.588;7.248;2023-02-14T02:29:26;102865.06;;;1.19;89.92
51359;BME280;37448;51.588;7.248;2023-02-14T02:32:02;102870.91;;;1.16;89.47
51359;BME280;37448;51.588;7.248;2023-02-14T02:37:05;102852.84;;;1.14;90.15
51359;BME280;37448;51.588;7.248;2023-02-14T02:41:32;102854.59;;;1.16;91.09
51359;BME280;37448;51.588;7.248;2023-02-14T02:43:54;102851.22;;;1.17;91.75
51359;BME280;37448;51.588;7.248;2023-02-14T02:46:34;102847.75;;;1.16;91.56
51359;BME280;37448;51.588;7.248;2023-02-14T02:48:57;102847.53;;;1.11;91.35
51359;BME280;37448;51.588;7.248;2023-02-14T02:51:00;102849.13;;;1.09;91.11
51359;BME280;37448;51.588;7.248;2023-02-14T02:53:27;102850.81;;;1.09;91.42
51359;BME280;37448;51.588;7.248;2023-02-14T02:57:55;102843.47;;;1.00;90.86
51359;BME280;37448;51.588;7.248;2023-02-14T02:59:56;102849.44;;;0.99;90.79
51359;BME280;37448;51.588;7.248;2023-02-14T03:04:04;102853.63;;;0.97;91.19
51359;BME280;37448;51.588;7.248;2023-02-14T03:06:24;102843.00;;;0.91;90.12
51359;BME280;37448;51.588;7.248;2023-02-14T03:08:25;102849.91;;;0.92;89.79
51359;BME280;37448;51.588;7.248;2023-02-14T03:10:29;102842.09;;;0.90;91.30
51359;BME280;37448;51.588;7.248;2023-02-14T03:16:53;102848.53;;;0.82;90.47
51359;BME280;37448;51.588;7.248;2023-02-14T03:23:28;102842.78;;;0.71;89.68
51359;BME280;37448;51.588;7.248;2023-02-14T03:27:55;102845.91;;;0.65;90.04
51359;BME280;37448;51.588;7.248;2023-02-14T03:30:02;102849.13;;;0.61;90.08
51359;BME280;37448;51.588;7.248;2023-02-14T03:34:47;102848.06;;;0.57;90.81
51359;BME280;37448;51.588;7.248;2023-02-14T03:36:54;102856.56;;;0.56;90.79
51359;BME280;37448;51.588;7.248;2023-02-14T03:39:14;102852.16;;;0.54;90.38
51359;BME280;37448;51.588;7.248;2023-02-14T03:41:19;102852.88;;;0.51;90.08
51359;BME280;37448;51.588;7.248;2023-02-14T03:43:27;102845.78;;;0.47;90.00
51359;BME280;37448;51.588;7.248;2023-02-14T03:45:37;102844.88;;;0.47;90.01
51359;BME280;37448;51.588;7.248;2023-02-14T03:47:40;102847.41;;;0.45;90.30
51359;BME280;37448;51.588;7.248;2023-02-14T03:49:47;102843.75;;;0.41;89.88
51359;BME280;37448;51.588;7.248;2023-02-14T03:51:49;102840.31;;;0.41;90.20
51359;BME280;37448;51.588;7.248;2023-02-14T03:53:55;102845.28;;;0.38;89.73
51359;BME280;37448;51.588;7.248;2023-02-14T03:56:16;102841.00;;;0.38;90.17
51359;BME280;37448;51.588;7.248;2023-02-14T03:58:23;102837.47;;;0.36;89.96
51359;BME280;37448;51.588;7.248;2023-02-14T04:00:26;102840.22;;;0.39;91.19
51359;BME280;37448;51.588;7.248;2023-02-14T04:02:34;102841.97;;;0.40;90.83
51359;BME280;37448;51.588;7.248;2023-02-14T04:04:41;102843.69;;;0.40;90.32
51359;BME280;37448;51.588;7.248;2023-02-14T04:06:43;102842.88;;;0.41;90.15
51359;BME280;37448;51.588;7.248;2023-02-14T04:08:43;102840.47;;;0.44;90.67
51359;BME280;37448;51.588;7.248;2023-02-14T04:10:43;102836.22;;;0.45;90.57
51359;BME280;37448;51.588;7.248;2023-02-14T04:12:44;102833.56;;;0.43;89.98
51359;BME280;37448;51.588;7.248;2023-02-14T04:14:44;102833.41;;;0.40;89.58
51359;BME280;37448;51.588;7.248;2023-02-14T04:16:45;102830.72;;;0.38;89.73
51359;BME280;37448;51.588;7.248;2023-02-14T04:19:03;102824.53;;;0.35;89.82
51359;BME280;37448;51.588;7.248;2023-02-14T04:21:22;102833.94;;;0.34;89.70
51359;BME280;37448;51.588;7.248;2023-02-14T04:23:22;102829.50;;;0.32;90.36
51359;BME280;37448;51.588;7.248;2023-02-14T04:25:23;102830.22;;;0.29;89.76
51359;BME280;37448;51.588;7.248;2023-02-14T04:27:23;102825.91;;;0.28;89.65
51359;BME280;37448;51.588;7.248;2023-02-14T04:29:24;102829.16;;;0.25;89.55
51359;BME280;37448;51.588;7.248;2023-02-14T04:31:24;102835.22;;;0.26;90.54
51359;BME280;37448;51.588;7.248;2023-02-14T04:33:24;102823.84;;;0.22;90.08
51359;BME280;37448;51.588;7.248;2023-02-14T04:35:25;102825.53;;;0.22;89.71
51359;BME280;37448;51.588;7.248;2023-02-14T04:37:25;102828.81;;;0.19;89.95
51359;BME280;37448;51.588;7.248;2023-02-14T04:39:25;102828.09;;;0.22;90.40
51359;BME280;37448;51.588;7.248;2023-02-14T04:41:26;102821.19;;;0.21;90.28
51359;BME280;37448;51.588;7.248;2023-02-14T04:43:26;102823.84;;;0.22;89.99
51359;BME280;37448;51.588;7.248;2023-02-14T04:45:27;102823.22;;;0.26;90.65
51359;BME280;37448;51.588;7.248;2023-02-14T04:47:27;102830.94;;;0.26;90.81
51359;BME280;37448;51.588;7.248;2023-02-14T04:49:28;102823.22;;;0.26;90.01
51359;BME280;37448;51.588;7.248;2023-02-14T04:51:28;102821.44;;;0.25;90.72
51359;BME280;37448;51.588;7.248;2023-02-14T04:53:28;102817.28;;;0.27;91.53
51359;BME280;37448;51.588;7.248;2023-02-14T04:55:29;102809.13;;;0.20;90.13
51359;BME280;37448;51.588;7.248;2023-02-14T04:57:30;102815.06;;;0.19;90.38
51359;BME280;37448;51.588;7.248;2023-02-14T04:59:30;102802.78;;;0.13;90.20
51359;BME280;37448;51.588;7.248;2023-02-14T05:01:30;102807.13;;;0.14;90.18
51359;BME280;37448;51.588;7.248;2023-02-14T05:03:31;102802.78;;;0.13;90.05
51359;BME280;37448;51.588;7.248;2023-02-14T05:05:31;102800.81;;;0.09;90.42
51359;BME280;37448;51.588;7.248;2023-02-14T05:07:32;102797.09;;;0.04;90.12
51359;BME280;37448;51.588;7.248;2023-02-14T05:09:32;102796.31;;;0.05;90.62
51359;BME280;37448;51.588;7.248;2023-02-14T05:11:32;102789.13;;;-0.01;89.70
51359;BME280;37448;51.588;7.248;2023-02-14T05:13:33;102788.09;;;-0.05;89.96
51359;BME280;37448;51.588;7.248;2023-02-14T05:15:33;102788.88;;;-0.06;89.93
51359;BME280;37448;51.588;7.248;2023-02-14T05:17:33;102785.25;;;-0.09;89.89
51359;BME280;37448;51.588;7.248;2023-02-14T05:19:35;102785.09;;;-0.12;89.82
51359;BME280;37448;51.588;7.248;2023-02-14T05:21:35;102784.19;;;-0.13;89.73
51359;BME280;37448;51.588;7.248;2023-02-14T05:23:36;102784.97;;;-0.14;89.87
51359;BME280;37448;51.588;7.248;2023-02-14T05:25:37;102786.06;;;-0.10;90.42
51359;BME280;37448;51.588;7.248;2023-02-14T05:27:37;102784.28;;;-0.11;90.14
51359;BME280;37448;51.588;7.248;2023-02-14T05:29:37;102785.97;;;-0.12;89.93
51359;BME280;37448;51.588;7.248;2023-02-14T05:31:38;102783.31;;;-0.13;89.98
51359;BME280;37448;51.588;7.248;2023-02-14T05:33:38;102782.63;;;-0.11;90.27
51359;BME280;37448;51.588;7.248;2023-02-14T05:35:38;102782.69;;;-0.09;90.66
51359;BME280;37448;51.588;7.248;2023-02-14T05:37:39;102777.47;;;-0.11;90.28
51359;BME280;37448;51.588;7.248;2023-02-14T05:39:39;102781.03;;;-0.09;90.19
51359;BME280;37448;51.588;7.248;2023-02-14T05:41:39;102778.34;;;-0.10;90.10
51359;BME280;37448;51.588;7.248;2023-02-14T05:43:40;102777.47;;;-0.11;90.51
51359;BME280;37448;51.588;7.248;2023-02-14T05:45:41;102768.59;;;-0.16;90.10
51359;BME280;37448;51.588;7.248;2023-02-14T05:47:41;102766.84;;;-0.17;90.10
51359;BME280;37448;51.588;7.248;2023-02-14T05:49:41;102772.69;;;-0.20;90.38
51359;BME280;37448;51.588;7.248;2023-02-14T05:51:42;102764.72;;;-0.24;89.97
51359;BME280;37448;51.588;7.248;2023-02-14T05:53:42;102770.66;;;-0.25;90.10
51359;BME280;37448;51.588;7.248;2023-02-14T05:55:43;102767.13;;;-0.27;90.34
51359;BME280;37448;51.588;7.248;2023-02-14T05:57:43;102771.19;;;-0.31;89.88
51359;BME280;37448;51.588;7.248;2023-02-14T05:59:43;102768.44;;;-0.34;89.85
51359;BME280;37448;51.588;7.248;2023-02-14T06:01:44;102769.25;;;-0.35;89.92
51359;BME280;37448;51.588;7.248;2023-02-14T06:03:44;102774.28;;;-0.37;89.97
51359;BME280;37448;51.588;7.248;2023-02-14T06:05:45;102777.47;;;-0.41;90.41
51359;BME280;37448;51.588;7.248;2023-02-14T06:07:48;102783.31;;;-0.44;89.67
51359;BME280;37448;51.588;7.248;2023-02-14T06:09:49;102791.66;;;-0.48;89.57
51359;BME280;37448;51.588;7.248;2023-02-14T06:11:50;102792.53;;;-0.47;89.74
51359;BME280;37448;51.588;7.248;2023-02-14T06:13:50;102792.34;;;-0.50;89.70
51359;BME280;37448;51.588;7.248;2023-02-14T06:15:51;102802.63;;;-0.50;90.43
51359;BME280;37448;51.588;7.248;2023-02-14T06:17:55;102798.91;;;-0.55;90.11
51359;BME280;37448;51.588;7.248;2023-02-14T06:19:56;102798.91;;;-0.55;90.06
51359;BME280;37448;51.588;7.248;2023-02-14T06:21:56;102805.63;;;-0.57;89.82
51359;BME280;37448;51.588;7.248;2023-02-14T06:23:56;102814.81;;;-0.61;89.80
51359;BME280;37448;51.588;7.248;2023-02-14T06:25:57;102812.13;;;-0.63;89.88
51359;BME280;37448;51.588;7.248;2023-02-14T06:27:57;102807.00;;;-0.63;89.91
51359;BME280;37448;51.588;7.248;2023-02-14T06:29:58;102819.84;;;-0.63;89.74
51359;BME280;37448;51.588;7.248;2023-02-14T06:31:58;102812.75;;;-0.67;89.51
51359;BME280;37448;51.588;7.248;2023-02-14T06:34:04;102823.03;;;-0.67;89.87
51359;BME280;37448;51.588;7.248;2023-02-14T06:36:05;102820.38;;;-0.68;89.97
51359;BME280;37448;51.588;7.248;2023-02-14T06:38:05;102825.41;;;-0.70;90.06
51359;BME280;37448;51.588;7.248;2023-02-14T06:40:07;102822.78;;;-0.71;89.73
51359;BME280;37448;51.588;7.248;2023-02-14T06:42:08;102821.88;;;-0.72;90.07
51359;BME280;37448;51.588;7.248;2023-02-14T06:44:08;102829.69;;;-0.70;90.37
51359;BME280;37448;51.588;7.248;2023-02-14T06:46:09;102826.19;;;-0.71;90.32
51359;BME280;37448;51.588;7.248;2023-02-14T06:48:10;102834.88;;;-0.69;90.07
51359;BME280;37448;51.588;7.248;2023-02-14T06:50:11;102828.09;;;-0.68;89.99
51359;BME280;37448;51.588;7.248;2023-02-14T06:52:11;102827.34;;;-0.66;90.26
51359;BME280;37448;51.588;7.248;2023-02-14T06:54:11;102830.03;;;-0.64;90.38
51359;BME280;37448;51.588;7.248;2023-02-14T06:56:12;102833.41;;;-0.65;90.44
51359;BME280;37448;51.588;7.248;2023-02-14T06:58:12;102831.88;;;-0.62;90.68
51359;BME280;37448;51.588;7.248;2023-02-14T07:00:13;102833.56;;;-0.62;90.52
51359;BME280;37448;51.588;7.248;2023-02-14T07:02:14;102839.56;;;-0.62;90.16
51359;BME280;37448;51.588;7.248;2023-02-14T07:04:14;102840.47;;;-0.61;90.25
51359;BME280;37448;51.588;7.248;2023-02-14T07:06:14;102831.97;;;-0.60;90.57
51359;BME280;37448;51.588;7.248;2023-02-14T07:08:15;102834.53;;;-0.60;90.39
51359;BME280;37448;51.588;7.248;2023-02-14T07:10:15;102832.88;;;-0.60;90.36
51359;BME280;37448;51.588;7.248;2023-02-14T07:12:16;102834.03;;;-0.54;91.49
51359;BME280;37448;51.588;7.248;2023-02-14T07:14:16;102837.59;;;-0.52;90.81
51359;BME280;37448;51.588;7.248;2023-02-14T07:16:17;102835.19;;;-0.49;90.88
51359;BME280;37448;51.588;7.248;2023-02-14T07:18:17;102835.38;;;-0.46;91.46
51359;BME280;37448;51.588;7.248;2023-02-14T07:20:17;102839.09;;;-0.41;90.82
51359;BME280;37448;51.588;7.248;2023-02-14T07:22:18;102835.91;;;-0.37;92.00
51359;BME280;37448;51.588;7.248;2023-02-14T07:24:18;102837.69;;;-0.36;91.09
51359;BME280;37448;51.588;7.248;2023-02-14T07:26:19;102829.44;;;-0.30;91.94
51359;BME280;37448;51.588;7.248;2023-02-14T07:28:19;102828.75;;;-0.27;91.94
51359;BME280;37448;51.588;7.248;2023-02-14T07:30:19;102836.63;;;-0.24;91.63
51359;BME280;37448;51.588;7.248;2023-02-14T07:32:20;102837.72;;;-0.21;91.37
51359;BME280;37448;51.588;7.248;2023-02-14T07:34:22;102841.50;;;-0.14;91.61
51359;BME280;37448;51.588;7.248;2023-02-14T07:36:23;102832.22;;;-0.12;91.16
51359;BME280;37448;51.588;7.248;2023-02-14T07:38:23;102831.66;;;-0.06;91.54
51359;BME280;37448;51.588;7.248;2023-02-14T07:40:23;102827.66;;;-0.01;91.86
51359;BME280;37448;51.588;7.248;2023-02-14T07:42:24;102824.50;;;0.03;91.49
51359;BME280;37448;51.588;7.248;2023-02-14T07:44:25;102829.09;;;0.09;92.12
51359;BME280;37448;51.588;7.248;2023-02-14T07:46:25;102814.84;;;0.14;91.42
51359;BME280;37448;51.588;7.248;2023-02-14T07:48:26;102821.91;;;0.18;91.54
51359;BME280;37448;51.588;7.248;2023-02-14T07:50:27;102820.47;;;0.23;91.38
51359;BME280;37448;51.588;7.248;2023-02-14T07:52:28;102819.22;;;0.32;91.48
51359;BME280;37448;51.588;7.248;2023-02-14T07:54:28;102823.13;;;0.56;92.12
51359;BME280;37448;51.588;7.248;2023-02-14T07:56:29;102826.94;;;1.11;92.14
51359;BME280;37448;51.588;7.248;2023-02-14T07:58:29;102823.84;;;1.86;91.92
51359;BME280;37448;51.588;7.248;2023-02-14T08:00:29;102825.22;;;2.52;91.17
51359;BME280;37448;51.588;7.248;2023-02-14T08:02:30;102827.97;;;3.33;85.63
51359;BME280;37448;51.588;7.248;2023-02-14T08:04:30;102812.00;;;4.05;82.92
51359;BME280;37448;51.588;7.248;2023-02-14T08:06:30;102823.47;;;4.79;77.54
51359;BME280;37448;51.588;7.248;2023-02-14T08:08:31;102818.09;;;5.45;75.26
51359;BME280;37448;51.588;7.248;2023-02-14T08:10:31;102824.31;;;6.02;78.17
51359;BME280;37448;51.588;7.248;2023-02-14T08:12:32;102824.25;;;6.28;71.54
51359;BME280;37448;51.588;7.248;2023-02-14T08:14:51;102829.50;;;6.88;69.73
51359;BME280;37448;51.588;7.248;2023-02-14T08:16:51;102824.44;;;7.25;75.17
51359;BME280;37448;51.588;7.248;2023-02-14T08:18:51;102820.13;;;7.57;72.19
51359;BME280;37448;51.588;7.248;2023-02-14T08:20:52;102824.41;;;7.90;71.19
51359;BME280;37448;51.588;7.248;2023-02-14T08:22:52;102819.19;;;8.27;71.40
51359;BME280;37448;51.588;7.248;2023-02-14T08:24:53;102821.94;;;8.72;78.00
51359;BME280;37448;51.588;7.248;2023-02-14T08:26:53;102823.59;;;9.11;75.81
51359;BME280;37448;51.588;7.248;2023-02-14T08:28:53;102810.97;;;9.33;66.35
51359;BME280;37448;51.588;7.248;2023-02-14T08:30:54;102808.00;;;9.62;61.42
51359;BME280;37448;51.588;7.248;2023-02-14T08:32:54;102815.63;;;10.03;68.24
51359;BME280;37448;51.588;7.248;2023-02-14T08:34:55;102810.94;;;10.39;75.22
51359;BME280;37448;51.588;7.248;2023-02-14T08:36:55;102815.59;;;10.60;70.27
51359;BME280;37448;51.588;7.248;2023-02-14T08:38:55;102817.75;;;10.94;68.40
51359;BME280;37448;51.588;7.248;2023-02-14T08:41:00;102820.69;;;11.24;63.30
51359;BME280;37448;51.588;7.248;2023-02-14T08:43:01;102808.75;;;11.51;70.37
51359;BME280;37448;51.588;7.248;2023-02-14T08:45:02;102814.25;;;11.85;68.35
51359;BME280;37448;51.588;7.248;2023-02-14T08:47:03;102814.44;;;12.06;65.48
51359;BME280;37448;51.588;7.248;2023-02-14T08:49:03;102818.13;;;12.37;68.52
51359;BME280;37448;51.588;7.248;2023-02-14T08:51:05;102825.03;;;12.19;57.37
51359;BME280;37448;51.588;7.248;2023-02-14T08:53:10;102812.00;;;12.38;55.65
51359;BME280;37448;51.588;7.248;2023-02-14T08:55:12;102819.19;;;12.82;65.45
51359;BME280;37448;51.588;7.248;2023-02-14T08:57:12;102816.66;;;13.07;55.71
51359;BME280;37448;51.588;7.248;2023-02-14T08:59:14;102805.34;;;13.20;55.07
51359;BME280;37448;51.588;7.248;2023-02-14T09:01:16;102806.31;;;13.63;57.74
51359;BME280;37448;51.588;7.248;2023-02-14T09:03:16;102812.41;;;13.79;58.67
51359;BME280;37448;51.588;7.248;2023-02-14T09:05:18;102809.78;;;13.77;50.95
51359;BME280;37448;51.588;7.248;2023-02-14T09:07:20;102808.00;;;14.07;58.75
51359;BME280;37448;51.588;7.248;2023-02-14T09:09:20;102801.00;;;14.13;57.76
51359;BME280;37448;51.588;7.248;2023-02-14T09:11:23;102803.59;;;14.19;55.39
51359;BME280;37448;51.588;7.248;2023-02-14T09:13:24;102805.34;;;14.23;55.52
51359;BME280;37448;51.588;7.248;2023-02-14T09:15:24;102799.22;;;14.26;60.16
51359;BME280;37448;51.588;7.248;2023-02-14T09:17:24;102800.97;;;14.22;51.29
51359;BME280;37448;51.588;7.248;2023-02-14T09:19:25;102801.81;;;14.35;55.32
51359;BME280;37448;51.588;7.248;2023-02-14T09:21:26;102802.69;;;14.35;56.99
51359;BME280;37448;51.588;7.248;2023-02-14T09:23:27;102802.69;;;14.26;59.31
51359;BME280;37448;51.588;7.248;2023-02-14T09:25:27;102795.66;;;14.34;59.96
51359;BME280;37448;51.588;7.248;2023-02-14T09:27:29;102790.41;;;14.31;51.69
51359;BME280;37448;51.588;7.248;2023-02-14T09:29:29;102788.59;;;14.52;59.62
51359;BME280;37448;51.588;7.248;2023-02-14T09:31:30;102787.66;;;14.75;59.55
51359;BME280;37448;51.588;7.248;2023-02-14T09:33:30;102782.41;;;14.64;51.26
51359;BME280;37448;51.588;7.248;2023-02-14T09:35:49;102784.16;;;14.70;57.20
51359;BME280;37448;51.588;7.248;2023-02-14T09:37:49;102778.66;;;15.15;58.56
51359;BME280;37448;51.588;7.248;2023-02-14T09:40:12;102770.66;;;15.29;54.38
51359;BME280;37448;51.588;7.248;2023-02-14T09:42:29;102776.03;;;15.16;51.73
51359;BME280;37448;51.588;7.248;2023-02-14T09:46:44;102777.31;;;15.75;56.39
51359;BME280;37448;51.588;7.248;2023-02-14T09:48:48;102766.69;;;15.86;55.96
51359;BME280;37448;51.588;7.248;2023-02-14T09:50:55;102769.06;;;16.12;53.94
51359;BME280;37448;51.588;7.248;2023-02-14T09:53:02;102764.72;;;16.10;50.18
51359;BME280;37448;51.588;7.248;2023-02-14T09:55:12;102765.34;;;16.30;54.69
51359;BME280;37448;51.588;7.248;2023-02-14T09:57:32;102773.50;;;16.09;49.83
51359;BME280;37448;51.588;7.248;2023-02-14T09:59:56;102765.53;;;16.13;49.55
51359;BME280;37448;51.588;7.248;2023-02-14T10:02:17;102772.34;;;16.34;50.39
51359;BME280;37448;51.588;7.248;2023-02-14T10:10:48;102751.44;;;16.17;45.13
51359;BME280;37448;51.588;7.248;2023-02-14T10:15:29;102753.38;;;16.72;46.46
51359;BME280;37448;51.588;7.248;2023-02-14T10:17:39;102759.38;;;16.83;49.16
51359;BME280;37448;51.588;7.248;2023-02-14T10:19:43;102756.81;;;16.78;44.33
51359;BME280;37448;51.588;7.248;2023-02-14T10:21:54;102759.28;;;16.91;44.36
51359;BME280;37448;51.588;7.248;2023-02-14T10:24:10;102749.72;;;16.82;43.38
51359;BME280;37448;51.588;7.248;2023-02-14T10:26:21;102751.47;;;16.83;43.24
51359;BME280;37448;51.588;7.248;2023-02-14T10:28:30;102754.22;;;17.35;48.74
51359;BME280;37448;51.588;7.248;2023-02-14T10:30:38;102758.44;;;17.48;48.81
51359;BME280;37448;51.588;7.248;2023-02-14T10:32:44;102753.81;;;17.60;42.26
51359;BME280;37448;51.588;7.248;2023-02-14T10:34:47;102760.31;;;17.89;50.53
51359;BME280;37448;51.588;7.248;2023-02-14T10:41:44;102757.22;;;17.67;44.00
51359;BME280;37448;51.588;7.248;2023-02-14T10:48:56;102756.84;;;14.99;48.78
51359;BME280;37448;51.588;7.248;2023-02-14T10:50:58;102746.66;;;14.21;52.52
51359;BME280;37448;51.588;7.248;2023-02-14T10:53:19;102751.13;;;13.35;53.94
51359;BME280;37448;51.588;7.248;2023-02-14T10:55:41;102744.03;;;12.76;56.75
51359;BME280;37448;51.588;7.248;2023-02-14T10:57:47;102747.34;;;12.24;56.99
51359;BME280;37448;51.588;7.248;2023-02-14T11:00:03;102744.22;;;11.54;56.42
51359;BME280;37448;51.588;7.248;2023-02-14T11:02:04;102741.16;;;11.03;58.05
51359;BME280;37448;51.588;7.248;2023-02-14T11:04:08;102744.81;;;10.42;58.74
51359;BME280;37448;51.588;7.248;2023-02-14T11:06:11;102736.75;;;10.26;59.84
51359;BME280;37448;51.588;7.248;2023-02-14T11:10:16;102733.50;;;9.80;60.72
51359;BME280;37448;51.588;7.248;2023-02-14T11:12:34;102729.66;;;9.56;61.53
51359;BME280;37448;51.588;7.248;2023-02-14T11:14:38;102731.94;;;9.39;62.22
51359;BME280;37448;51.588;7.248;2023-02-14T11:16:39;102727.34;;;9.24;62.53
51359;BME280;37448;51.588;7.248;2023-02-14T11:18:40;102721.09;;;9.12;63.79
51359;BME280;37448;51.588;7.248;2023-02-14T11:20:40;102718.19;;;8.97;63.66
51359;BME280;37448;51.588;7.248;2023-02-14T11:22:40;102712.81;;;8.87;64.59
51359;BME280;37448;51.588;7.248;2023-02-14T11:24:41;102709.25;;;8.82;64.85
51359;BME280;37448;51.588;7.248;2023-02-14T11:26:47;102707.34;;;8.73;64.85
51359;BME280;37448;51.588;7.248;2023-02-14T11:28:53;102708.06;;;8.66;65.26
51359;BME280;37448;51.588;7.248;2023-02-14T11:30:54;102705.28;;;8.57;64.93
51359;BME280;37448;51.588;7.248;2023-02-14T11:32:55;102705.19;;;8.52;65.41
51359;BME280;37448;51.588;7.248;2023-02-14T11:35:03;102697.28;;;8.47;66.30
51359;BME280;37448;51.588;7.248;2023-02-14T11:39:34;102693.59;;;8.38;66.28
51359;BME280;37448;51.588;7.248;2023-02-14T11:41:46;102690.09;;;8.36;66.90
51359;BME280;37448;51.588;7.248;2023-02-14T11:43:47;102685.72;;;8.35;66.94
51359;BME280;37448;51.588;7.248;2023-02-14T11:45:48;102683.13;;;8.36;66.49
51359;BME280;37448;51.588;7.248;2023-02-14T11:50:22;102672.94;;;8.47;65.11